Onweer radar Meer informatie blitzortung!


Regen radar Meer informatie rain snow radar



METAR rapporten vliegvelden

   
EHRD - Rotterdam
Gewijzigd: 23-05-2019 02:25
Gedeeltelijk bewolkt  
Gedeeltelijk bewolkt  
   Wind: ZZO 6 km/h
Wind: ZZO 6 km/h
Temperatuur: 11°C
Dauwpunt: 6°C
Vochtigheid: 72%
Barometer: 1019 hPa
Bewolking: Partly Cloudy
Zicht: meer dan 10 km
Bewolking: Gedeeltelijk bewolkt ft
EHRD 230025Z AUTO 16006KT 9999 NSC 11/06 Q1019 NOSIG
EBAW - Antwerpen
Gewijzigd: 23-05-2019 02:20
Helder  
Helder  
   Wind: ZO 2 km/h
Wind: ZO 2 km/h
Temperatuur: 9°C
Dauwpunt: 6°C
Vochtigheid: 82%
Barometer: 1019 hPa
Zicht: meer dan 10 km
Bewolking: Helder ft
EBAW 230020Z AUTO 13002KT CAVOK 09/06 Q1019
EHAM - Amsterdam
Gewijzigd: 23-05-2019 02:25
Helder  
Helder  
   Wind: varieert 2 km/h
Wind: varieert 2 km/h
Temperatuur: 8°C
Dauwpunt: 6°C
Vochtigheid: 87%
Barometer: 1019 hPa
Zicht: meer dan 10 km
Bewolking: Helder ft
EHAM 230025Z VRB02KT CAVOK 08/06 Q1019 NOSIG
EHEH - Eindhoven
Gewijzigd: 23-05-2019 02:25
Bewolking  
Bewolking  
   Wind: Zuiden 2 km/h
Wind: Zuiden 2 km/h
Temperatuur: 6°C
Dauwpunt: 4°C
Vochtigheid: 87%
Barometer: 1019 hPa
Bewolking: Overcast
Zicht: meer dan 10 km
Bewolking: Licht bewolkt 6200 ft,
Bewolking 34000 ft
EHEH 230025Z AUTO 19002KT 9999 FEW062 OVC340 06/04 Q1019 BLU
  

Script ontwikkeld door  Saratoga-weather.org Aangepast voor de template door  Weerstation Leuven

U vindt ons ook hier:

Het Weer Aktueel

Apparatuur in gebruik:

Weerstation
Davis VP2

Weerprogramma
Cumulus

Weercomputer
Pipo X9 with Windows 10

Davis VP2

Cumulus

Pipo X9 with Windows 10